Time;durP1;ratioP1;P1;durP2;ratioP2;P2;SDS_P1;SDS_P2;PMS_P1;PMS_P2;Temp;Humidity;BMP_temperature;BMP_pressure;BME280_temperature;BME280_humidity;BME280_pressure;Samples;Min_cycle;Max_cycle;Signal;HPM_P1;HPM_P2
2023/11/11 00:00:53;;;;;;;8.93;2.80;;;;;9.10;95463.00;;;;5111462;28;20226;-84
2023/11/11 00:03:42;;;;;;;5.33;1.87;;;;;9.00;95443.00;;;;5127181;28;20210;-83
2023/11/11 00:06:31;;;;;;;8.13;2.57;;;;;9.00;95451.00;;;;5118504;28;20210;-85
2023/11/11 00:09:20;;;;;;;18.63;5.63;;;;;9.10;95441.00;;;;5110818;28;20206;-85
2023/11/11 00:12:11;;;;;;;8.80;2.80;;;;;9.10;95442.00;;;;5112940;28;20256;-85
2023/11/11 00:15:01;;;;;;;7.73;2.50;;;;;9.00;95433.00;;;;5106514;28;20194;-85
2023/11/11 00:17:50;;;;;;;7.27;2.37;;;;;8.90;95435.00;;;;5107925;28;20694;-85
2023/11/11 00:20:40;;;;;;;9.87;2.93;;;;;8.90;95435.00;;;;5102920;28;20233;-85
2023/11/11 00:23:30;;;;;;;8.60;2.67;;;;;9.00;95434.00;;;;5109004;28;20679;-85
2023/11/11 00:26:19;;;;;;;13.37;4.10;;;;;9.00;95427.00;;;;5103288;28;20211;-85
2023/11/11 00:29:10;;;;;;;8.93;2.63;;;;;8.90;95425.00;;;;5112519;28;20721;-84
2023/11/11 00:31:59;;;;;;;7.73;2.30;;;;;8.90;95425.00;;;;5107805;28;20226;-85
2023/11/11 00:34:48;;;;;;;7.60;2.37;;;;;8.90;95422.00;;;;5106689;28;20207;-85
2023/11/11 00:37:37;;;;;;;12.60;3.83;;;;;8.80;95432.00;;;;5109444;28;20226;-84
2023/11/11 00:40:26;;;;;;;12.63;3.97;;;;;8.70;95426.00;;;;5103317;28;20209;-84
2023/11/11 00:43:15;;;;;;;13.10;3.83;;;;;8.70;95424.00;;;;5112858;27;20210;-84
2023/11/11 00:46:05;;;;;;;9.37;2.93;;;;;8.70;95434.00;;;;5105906;28;20626;-84
2023/11/11 00:48:54;;;;;;;7.33;2.33;;;;;8.70;95434.00;;;;5104612;28;20195;-85
2023/11/11 00:51:43;;;;;;;8.33;2.53;;;;;8.70;95436.00;;;;5110571;27;20253;-85
2023/11/11 00:54:33;;;;;;;9.73;2.87;;;;;8.60;95432.00;;;;5110583;28;20198;-85
2023/11/11 00:57:22;;;;;;;18.47;5.47;;;;;8.70;95427.00;;;;5108303;28;20213;-84
2023/11/11 01:00:12;;;;;;;6.80;2.13;;;;;8.70;95431.00;;;;5111037;28;20195;-85
2023/11/11 01:03:03;;;;;;;7.93;2.50;;;;;8.60;95431.00;;;;5107878;28;20225;-86
2023/11/11 01:05:52;;;;;;;10.10;3.03;;;;;8.60;95422.00;;;;5104403;28;20195;-84
2023/11/11 01:08:41;;;;;;;7.83;2.33;;;;;8.60;95419.00;;;;5102621;28;20195;-85
2023/11/11 01:11:30;;;;;;;10.03;3.03;;;;;8.60;95422.00;;;;5108241;27;20227;-85
2023/11/11 01:14:22;;;;;;;12.77;3.83;;;;;8.60;95413.00;;;;5108098;28;20206;-84
2023/11/11 01:17:11;;;;;;;6.67;2.17;;;;;8.30;95414.00;;;;5109163;28;20210;-85
2023/11/11 01:20:02;;;;;;;9.23;2.83;;;;;8.50;95418.00;;;;5104274;28;20667;-85
2023/11/11 01:22:51;;;;;;;7.43;2.27;;;;;8.20;95413.00;;;;5110504;28;20264;-86
2023/11/11 01:25:41;;;;;;;10.77;3.20;;;;;8.10;95420.00;;;;5106969;28;20207;-86
2023/11/11 01:28:30;;;;;;;7.77;2.30;;;;;8.40;95420.00;;;;5108074;28;20242;-87
2023/11/11 01:31:20;;;;;;;12.00;3.60;;;;;8.60;95416.00;;;;5105999;28;20234;-86
2023/11/11 01:34:10;;;;;;;5.63;1.90;;;;;8.30;95411.00;;;;5110335;28;20213;-87
2023/11/11 01:37:04;;;;;;;8.47;2.70;;;;;8.30;95408.00;;;;5105807;28;20221;-87
2023/11/11 01:39:54;;;;;;;7.83;2.50;;;;;8.50;95407.00;;;;5106430;28;20222;-87
2023/11/11 01:42:43;;;;;;;5.53;1.77;;;;;8.50;95405.00;;;;5101305;28;20229;-86
2023/11/11 01:45:32;;;;;;;7.10;2.23;;;;;8.10;95397.00;;;;5108820;28;20593;-85
2023/11/11 01:48:22;;;;;;;13.10;3.87;;;;;8.10;95394.00;;;;5102046;28;20198;-85
2023/11/11 01:51:11;;;;;;;7.20;2.23;;;;;8.00;95403.00;;;;5108134;28;20215;-86
2023/11/11 01:54:02;;;;;;;5.40;1.70;;;;;7.60;95398.00;;;;5105219;27;20217;-86
2023/11/11 01:56:52;;;;;;;8.10;2.50;;;;;7.70;95402.00;;;;5102792;28;20198;-86
2023/11/11 01:59:41;;;;;;;9.10;2.77;;;;;7.60;95398.00;;;;5108239;28;20237;-86
2023/11/11 02:02:30;;;;;;;10.37;3.10;;;;;7.80;95390.00;;;;5107398;28;20227;-83
2023/11/11 02:05:19;;;;;;;13.57;4.07;;;;;8.20;95389.00;;;;5107842;28;20666;-84
2023/11/11 02:08:09;;;;;;;8.20;2.57;;;;;8.20;95387.00;;;;5109318;28;20667;-83
2023/11/11 02:11:01;;;;;;;9.07;2.77;;;;;8.10;95376.00;;;;5105789;28;20222;-85
2023/11/11 02:13:50;;;;;;;8.97;2.73;;;;;8.30;95377.00;;;;5101859;28;20194;-86
2023/11/11 02:16:39;;;;;;;8.50;2.67;;;;;8.40;95368.00;;;;5108300;28;20206;-83
2023/11/11 02:19:29;;;;;;;11.80;3.67;;;;;8.50;95369.00;;;;5101544;28;20245;-84
2023/11/11 02:22:18;;;;;;;9.50;2.90;;;;;8.20;95364.00;;;;5108211;28;20225;-83
2023/11/11 02:25:10;;;;;;;5.13;1.77;;;;;7.90;95362.00;;;;5102415;28;20217;-86
2023/11/11 02:27:59;;;;;;;7.37;2.30;;;;;8.00;95361.00;;;;5103292;28;20686;-83
2023/11/11 02:30:48;;;;;;;9.90;2.87;;;;;8.10;95364.00;;;;5107703;28;20348;-84
2023/11/11 02:33:37;;;;;;;11.40;3.30;;;;;8.20;95371.00;;;;5112914;28;20261;-84
2023/11/11 02:36:26;;;;;;;13.80;4.20;;;;;8.10;95367.00;;;;5112865;28;20216;-83
2023/11/11 02:39:16;;;;;;;22.23;6.33;;;;;8.20;95373.00;;;;5112605;28;20609;-85
2023/11/11 02:42:06;;;;;;;7.37;2.30;;;;;7.80;95366.00;;;;5110420;28;20219;-85
2023/11/11 02:44:56;;;;;;;9.03;2.73;;;;;8.30;95371.00;;;;5110239;28;20233;-84
2023/11/11 02:47:45;;;;;;;8.80;2.70;;;;;8.30;95371.00;;;;5102781;28;20209;-85
2023/11/11 02:50:34;;;;;;;9.40;2.97;;;;;8.40;95365.00;;;;5114202;28;20222;-86
2023/11/11 02:53:23;;;;;;;14.13;4.33;;;;;8.40;95367.00;;;;5112607;28;20207;-85
2023/11/11 02:56:12;;;;;;;8.13;2.53;;;;;8.40;95368.00;;;;5114761;27;20206;-85
2023/11/11 02:59:03;;;;;;;8.77;2.73;;;;;8.40;95367.00;;;;5112029;28;20229;-84
2023/11/11 03:01:52;;;;;;;8.63;2.63;;;;;8.40;95371.00;;;;5110278;27;20237;-85
2023/11/11 03:04:41;;;;;;;7.93;2.40;;;;;8.50;95373.00;;;;5109490;28;20210;-84
2023/11/11 03:07:30;;;;;;;21.37;6.30;;;;;8.50;95365.00;;;;5111389;28;20202;-85
2023/11/11 03:10:19;;;;;;;13.17;4.03;;;;;8.40;95371.00;;;;5114016;28;20677;-84
2023/11/11 03:13:09;;;;;;;8.60;2.73;;;;;8.30;95367.00;;;;5114005;27;20195;-84
2023/11/11 03:16:01;;;;;;;17.40;5.10;;;;;8.20;95368.00;;;;5114533;28;20206;-84
2023/11/11 03:18:50;;;;;;;8.43;2.60;;;;;8.10;95362.00;;;;5106307;28;20223;-85
2023/11/11 03:21:39;;;;;;;7.40;2.33;;;;;8.30;95364.00;;;;5114446;27;20227;-84
2023/11/11 03:24:29;;;;;;;14.60;4.57;;;;;8.40;95370.00;;;;5110409;28;20613;-85
2023/11/11 03:27:18;;;;;;;14.53;4.30;;;;;8.30;95374.00;;;;5113668;28;20199;-82
2023/11/11 03:30:09;;;;;;;8.03;2.43;;;;;8.40;95365.00;;;;5110161;28;20202;-82
2023/11/11 03:32:59;;;;;;;6.23;1.90;;;;;8.40;95360.00;;;;5111143;28;20228;-86
2023/11/11 03:35:50;;;;;;;9.43;2.83;;;;;8.10;95354.00;;;;5106047;28;20628;-83
2023/11/11 03:38:40;;;;;;;7.97;2.50;;;;;8.20;95371.00;;;;5113069;28;20217;-84
2023/11/11 03:41:29;;;;;;;13.30;4.07;;;;;8.20;95362.00;;;;5112584;28;20729;-86
2023/11/11 03:44:18;;;;;;;12.57;3.80;;;;;8.10;95365.00;;;;5111067;28;20588;-86
2023/11/11 03:47:07;;;;;;;10.80;3.30;;;;;7.80;95366.00;;;;5098451;28;20211;-85
2023/11/11 03:49:58;;;;;;;7.70;2.43;;;;;7.40;95367.00;;;;5106916;28;20622;-85
2023/11/11 03:52:47;;;;;;;7.30;2.30;;;;;7.60;95361.00;;;;5107613;28;20222;-86
2023/11/11 03:55:36;;;;;;;10.43;3.13;;;;;7.50;95367.00;;;;5112362;28;20203;-85
2023/11/11 03:58:25;;;;;;;13.83;4.10;;;;;7.70;95368.00;;;;5110970;28;20203;-83
2023/11/11 04:01:14;;;;;;;10.30;3.17;;;;;8.00;95363.00;;;;5111496;28;20245;-84
2023/11/11 04:04:04;;;;;;;7.50;2.30;;;;;8.10;95364.00;;;;5108416;28;20202;-86
2023/11/11 04:06:54;;;;;;;9.00;2.73;;;;;8.10;95374.00;;;;5104311;28;20195;-86
2023/11/11 04:09:44;;;;;;;8.10;2.50;;;;;8.10;95371.00;;;;5112221;28;20252;-85
2023/11/11 04:12:33;;;;;;;8.67;2.80;;;;;8.10;95371.00;;;;5108428;28;20219;-86
2023/11/11 04:15:22;;;;;;;10.90;3.23;;;;;8.10;95370.00;;;;5106048;28;20230;-86
2023/11/11 04:18:11;;;;;;;4.70;1.57;;;;;8.20;95373.00;;;;5113976;27;20210;-83
2023/11/11 04:21:00;;;;;;;7.20;2.13;;;;;8.20;95371.00;;;;5109175;28;20222;-84
2023/11/11 04:23:51;;;;;;;8.23;2.50;;;;;8.00;95370.00;;;;5105710;28;20202;-83
2023/11/11 04:26:40;;;;;;;6.87;2.10;;;;;7.90;95365.00;;;;5120784;28;20211;-85
2023/11/11 04:29:30;;;;;;;11.33;3.53;;;;;8.10;95366.00;;;;5122351;28;20199;-84
2023/11/11 04:32:21;;;;;;;15.07;4.47;;;;;8.20;95374.00;;;;5111434;28;20229;-84
2023/11/11 04:35:10;;;;;;;6.90;2.07;;;;;8.20;95375.00;;;;5109900;28;20210;-86
2023/11/11 04:38:00;;;;;;;10.53;3.10;;;;;8.20;95369.00;;;;5107325;28;20191;-86
2023/11/11 04:40:50;;;;;;;9.17;2.80;;;;;8.20;95372.00;;;;5113912;28;20225;-86
2023/11/11 04:43:39;;;;;;;7.80;2.40;;;;;8.20;95372.00;;;;5112448;28;20260;-86
2023/11/11 04:46:29;;;;;;;11.97;3.70;;;;;8.20;95375.00;;;;5112112;28;20221;-85
2023/11/11 04:49:18;;;;;;;17.93;5.23;;;;;8.10;95370.00;;;;5107797;28;20866;-86
2023/11/11 04:52:07;;;;;;;8.60;2.63;;;;;8.10;95367.00;;;;5109096;28;20225;-86
2023/11/11 04:54:56;;;;;;;7.73;2.37;;;;;8.00;95366.00;;;;5111329;28;20203;-86
2023/11/11 04:57:47;;;;;;;7.00;2.13;;;;;8.20;95372.00;;;;5107775;28;20199;-86
2023/11/11 05:00:38;;;;;;;8.67;2.70;;;;;7.90;95361.00;;;;5109768;28;20882;-84
2023/11/11 05:03:27;;;;;;;8.27;2.63;;;;;7.90;95359.00;;;;5110410;28;20203;-85
2023/11/11 05:06:18;;;;;;;8.60;2.63;;;;;7.50;95362.00;;;;5110742;28;20210;-86
2023/11/11 05:09:07;;;;;;;9.43;2.73;;;;;7.40;95359.00;;;;5102302;28;20195;-85
2023/11/11 05:11:57;;;;;;;8.63;2.57;;;;;6.90;95363.00;;;;5101367;28;20219;-87
2023/11/11 05:14:47;;;;;;;8.60;2.67;;;;;6.80;95361.00;;;;5101359;28;20225;-84
2023/11/11 05:17:36;;;;;;;12.97;3.93;;;;;7.00;95371.00;;;;5108831;28;20207;-84
2023/11/11 05:20:25;;;;;;;13.83;4.17;;;;;7.10;95371.00;;;;5108910;27;20218;-83
2023/11/11 05:23:14;;;;;;;7.70;2.40;;;;;7.50;95372.00;;;;5108088;28;20202;-85
2023/11/11 05:26:03;;;;;;;5.70;1.80;;;;;7.30;95371.00;;;;5105605;28;20206;-83
2023/11/11 05:28:52;;;;;;;7.93;2.40;;;;;7.40;95378.00;;;;5106815;27;20248;-84
2023/11/11 05:31:43;;;;;;;8.30;2.60;;;;;7.20;95377.00;;;;5109729;28;20221;-84
2023/11/11 05:34:32;;;;;;;14.43;4.50;;;;;7.20;95393.00;;;;5107711;28;20210;-81
2023/11/11 05:37:22;;;;;;;14.20;4.27;;;;;7.00;95391.00;;;;5100872;28;20206;-84
2023/11/11 05:40:17;;;;;;;5.43;1.83;;;;;7.20;95394.00;;;;5111977;28;20601;-84
2023/11/11 05:43:07;;;;;;;8.60;2.57;;;;;7.50;95400.00;;;;5105211;28;20215;-83
2023/11/11 05:45:56;;;;;;;7.17;2.33;;;;;7.60;95401.00;;;;5104297;28;20742;-83
2023/11/11 05:48:47;;;;;;;8.07;2.50;;;;;7.80;95400.00;;;;5103613;27;20218;-84
2023/11/11 05:51:36;;;;;;;8.83;2.67;;;;;7.70;95409.00;;;;5108763;28;20312;-82
2023/11/11 05:54:25;;;;;;;16.10;4.70;;;;;7.80;95400.00;;;;5106646;28;20209;-83
2023/11/11 05:57:14;;;;;;;8.70;2.73;;;;;8.00;95398.00;;;;5106007;28;20217;-82
2023/11/11 06:00:04;;;;;;;8.07;2.50;;;;;8.00;95412.00;;;;5110219;28;20229;-84
2023/11/11 06:02:55;;;;;;;9.03;2.70;;;;;8.10;95399.00;;;;5106127;28;20578;-85
2023/11/11 06:05:45;;;;;;;10.03;3.10;;;;;8.10;95404.00;;;;5110572;28;20220;-84
2023/11/11 06:08:34;;;;;;;7.50;2.30;;;;;8.10;95409.00;;;;5108528;28;20791;-85
2023/11/11 06:11:23;;;;;;;14.53;4.13;;;;;8.10;95397.00;;;;5103809;28;20590;-84
2023/11/11 06:14:15;;;;;;;7.17;2.27;;;;;8.20;95380.00;;;;5108821;28;20285;-81
2023/11/11 06:17:05;;;;;;;8.93;2.60;;;;;8.20;95382.00;;;;5101898;28;20198;-85
2023/11/11 06:19:54;;;;;;;9.30;2.83;;;;;8.00;95383.00;;;;5098603;28;20203;-84
2023/11/11 06:22:45;;;;;;;8.47;2.63;;;;;7.70;95415.00;;;;5108532;28;20607;-83
2023/11/11 06:25:53;;;;;;;7.50;2.30;;;;;7.90;95413.00;;;;5102235;28;20265;-83
2023/11/11 06:28:42;;;;;;;10.07;2.90;;;;;7.00;95415.00;;;;5106945;28;20199;-86
2023/11/11 06:31:32;;;;;;;9.37;2.93;;;;;6.60;95422.00;;;;5106767;28;20249;-83
2023/11/11 06:34:21;;;;;;;12.83;3.83;;;;;6.70;95404.00;;;;5107454;28;20210;-83
2023/11/11 06:37:10;;;;;;;6.53;2.10;;;;;7.20;95417.00;;;;5107910;28;20682;-82
2023/11/11 06:40:01;;;;;;;6.23;1.97;;;;;7.50;95418.00;;;;5103263;28;20195;-85
2023/11/11 06:42:50;;;;;;;9.10;2.67;;;;;7.40;95411.00;;;;5100258;28;20219;-84
2023/11/11 06:45:41;;;;;;;9.13;2.73;;;;;7.30;95417.00;;;;5106572;28;20191;-83
2023/11/11 06:48:30;;;;;;;14.63;4.40;;;;;7.40;95427.00;;;;5098159;28;20199;-84
2023/11/11 06:51:19;;;;;;;31.17;8.83;;;;;7.80;95425.00;;;;5094034;28;20298;-83
2023/11/11 06:54:09;;;;;;;8.77;2.67;;;;;8.00;95425.00;;;;5096397;28;20206;-85
2023/11/11 06:56:59;;;;;;;9.97;2.97;;;;;8.10;95421.00;;;;5104665;28;20215;-85
2023/11/11 06:59:48;;;;;;;11.07;3.37;;;;;8.20;95416.00;;;;5098545;28;20288;-84
2023/11/11 07:02:38;;;;;;;10.20;3.00;;;;;8.00;95411.00;;;;5098288;28;20226;-83
2023/11/11 07:05:27;;;;;;;12.73;3.70;;;;;7.60;95421.00;;;;5094734;28;20272;-82
2023/11/11 07:08:16;;;;;;;7.83;2.40;;;;;7.50;95419.00;;;;5098195;28;20203;-82
2023/11/11 07:11:07;;;;;;;7.17;2.27;;;;;7.50;95414.00;;;;5100191;28;20218;-85
2023/11/11 07:13:58;;;;;;;8.50;2.53;;;;;7.30;95418.00;;;;5104358;28;20241;-85
2023/11/11 07:16:47;;;;;;;12.90;3.87;;;;;7.10;95429.00;;;;5109919;28;20209;-86
2023/11/11 07:19:37;;;;;;;9.13;2.83;;;;;7.10;95435.00;;;;5100911;28;20210;-85
2023/11/11 07:22:28;;;;;;;23.93;6.93;;;;;7.40;95437.00;;;;5091835;28;20707;-82
2023/11/11 07:25:20;;;;;;;10.63;3.10;;;;;7.60;95447.00;;;;5100772;28;20199;-82
2023/11/11 07:28:10;;;;;;;17.33;5.00;;;;;7.50;95451.00;;;;5095899;28;20605;-83
2023/11/11 07:31:01;;;;;;;12.20;3.57;;;;;7.50;95443.00;;;;5113940;28;20222;-84
2023/11/11 07:33:51;;;;;;;7.87;2.40;;;;;7.80;95459.00;;;;5110210;27;20207;-85
2023/11/11 07:36:40;;;;;;;8.90;2.70;;;;;7.90;95470.00;;;;5100493;27;20705;-83
2023/11/11 07:39:30;;;;;;;15.43;4.57;;;;;7.70;95454.00;;;;5109674;27;20821;-83
2023/11/11 07:42:19;;;;;;;8.87;2.67;;;;;7.80;95471.00;;;;5098560;27;20235;-84
2023/11/11 07:45:09;;;;;;;14.97;4.27;;;;;8.00;95470.00;;;;5092501;27;20758;-83
2023/11/11 07:47:59;;;;;;;10.07;2.93;;;;;8.50;95473.00;;;;5094308;27;20198;-82
2023/11/11 07:50:48;;;;;;;17.37;4.90;;;;;8.70;95480.00;;;;5094856;27;20207;-83
2023/11/11 07:53:37;;;;;;;12.00;3.50;;;;;8.90;95479.00;;;;5093739;27;20711;-82
2023/11/11 07:56:33;;;;;;;21.93;6.37;;;;;9.00;95481.00;;;;5090324;27;20224;-81
2023/11/11 07:59:22;;;;;;;21.10;5.90;;;;;8.60;95469.00;;;;5096027;28;20271;-84
2023/11/11 08:02:13;;;;;;;13.40;3.80;;;;;8.70;95460.00;;;;5094893;28;20230;-84
2023/11/11 08:05:03;;;;;;;9.33;2.80;;;;;9.00;95458.00;;;;5100073;28;20206;-84
2023/11/11 08:07:52;;;;;;;12.53;3.60;;;;;8.70;95466.00;;;;5098036;27;20203;-83
2023/11/11 08:10:44;;;;;;;15.87;4.47;;;;;8.80;95479.00;;;;5101613;27;20268;-82
2023/11/11 08:13:34;;;;;;;22.47;6.40;;;;;9.20;95471.00;;;;5100670;27;20203;-85
2023/11/11 08:16:23;;;;;;;16.20;4.57;;;;;9.40;95481.00;;;;5102453;27;20214;-83
2023/11/11 08:19:12;;;;;;;9.23;2.73;;;;;9.00;95469.00;;;;5102623;27;20221;-83
2023/11/11 08:22:05;;;;;;;9.20;2.70;;;;;8.50;95470.00;;;;5100674;27;20228;-84
2023/11/11 08:24:54;;;;;;;10.97;3.20;;;;;8.70;95476.00;;;;5099356;28;20222;-83
2023/11/11 08:27:44;;;;;;;9.17;2.70;;;;;8.70;95470.00;;;;5107201;28;20260;-82
2023/11/11 08:30:33;;;;;;;18.40;5.27;;;;;9.00;95471.00;;;;5102033;28;20203;-83
2023/11/11 08:33:22;;;;;;;20.13;5.63;;;;;8.60;95473.00;;;;5102885;28;20356;-82
2023/11/11 08:36:11;;;;;;;7.80;2.33;;;;;8.60;95473.00;;;;5098310;28;20203;-84
2023/11/11 08:39:02;;;;;;;8.10;2.47;;;;;8.70;95468.00;;;;5101626;28;20203;-83
2023/11/11 08:41:51;;;;;;;12.43;3.70;;;;;9.00;95448.00;;;;5103923;28;20227;-82
2023/11/11 08:44:40;;;;;;;9.50;2.77;;;;;9.40;95459.00;;;;5100808;28;20211;-83
2023/11/11 08:47:29;;;;;;;27.07;7.57;;;;;9.40;95452.00;;;;5099056;28;20218;-84
2023/11/11 08:50:19;;;;;;;11.87;3.43;;;;;9.30;95452.00;;;;5106571;28;20210;-81
2023/11/11 08:53:08;;;;;;;11.20;3.23;;;;;9.20;95454.00;;;;5107210;28;20206;-83
2023/11/11 08:55:58;;;;;;;9.37;2.77;;;;;9.00;95459.00;;;;5117151;28;20203;-82
2023/11/11 08:58:47;;;;;;;9.63;2.87;;;;;8.60;95467.00;;;;5114031;27;20211;-80
2023/11/11 09:01:37;;;;;;;7.97;2.50;;;;;8.90;95471.00;;;;5119663;27;20227;-85
2023/11/11 09:04:26;;;;;;;18.83;5.33;;;;;9.00;95475.00;;;;5118751;27;20209;-83
2023/11/11 09:07:15;;;;;;;8.47;2.60;;;;;8.90;95466.00;;;;5117271;27;20213;-83
2023/11/11 09:10:06;;;;;;;9.17;2.70;;;;;9.10;95468.00;;;;5113815;27;20195;-82
2023/11/11 09:12:57;;;;;;;11.20;3.37;;;;;9.10;95466.00;;;;5111983;27;20221;-84
2023/11/11 09:15:46;;;;;;;12.57;3.63;;;;;9.50;95472.00;;;;5111452;27;20203;-84
2023/11/11 09:18:35;;;;;;;14.00;4.10;;;;;9.70;95472.00;;;;5112380;27;20682;-84
2023/11/11 09:21:24;;;;;;;16.63;4.83;;;;;10.10;95475.00;;;;5114971;27;20226;-83
2023/11/11 09:24:13;;;;;;;7.90;2.37;;;;;10.10;95464.00;;;;5117552;27;20202;-84
2023/11/11 09:27:02;;;;;;;7.57;2.20;;;;;10.30;95459.00;;;;5112296;27;20206;-83
2023/11/11 09:29:56;;;;;;;9.57;2.80;;;;;10.50;95464.00;;;;5108338;27;20198;-84
2023/11/11 09:32:45;;;;;;;10.10;2.93;;;;;10.60;95469.00;;;;5117571;27;20222;-84
2023/11/11 09:35:34;;;;;;;19.63;5.67;;;;;10.50;95471.00;;;;5110197;27;20222;-84
2023/11/11 09:38:23;;;;;;;15.43;4.40;;;;;10.90;95463.00;;;;5103593;27;20210;-83
2023/11/11 09:41:12;;;;;;;7.50;2.20;;;;;10.90;95469.00;;;;5116141;27;20671;-83
2023/11/11 09:44:01;;;;;;;6.40;1.97;;;;;10.40;95465.00;;;;5111299;27;20206;-83
2023/11/11 09:46:55;;;;;;;6.73;2.03;;;;;11.00;95463.00;;;;5104445;28;20198;-82
2023/11/11 09:49:44;;;;;;;15.40;4.27;;;;;11.40;95472.00;;;;5099258;28;20211;-84
2023/11/11 09:52:34;;;;;;;18.33;5.23;;;;;11.30;95471.00;;;;5102771;27;20219;-84
2023/11/11 09:55:24;;;;;;;16.37;4.60;;;;;11.70;95473.00;;;;5106087;27;20202;-82
2023/11/11 09:58:14;;;;;;;10.10;2.80;;;;;11.40;95482.00;;;;5104587;27;20741;-84
2023/11/11 10:01:04;;;;;;;10.43;2.97;;;;;11.70;95468.00;;;;5103850;28;20222;-84
2023/11/11 10:03:56;;;;;;;8.80;2.57;;;;;12.20;95473.00;;;;5110711;28;20740;-84
2023/11/11 10:06:45;;;;;;;12.10;3.50;;;;;12.20;95467.00;;;;5106875;27;20202;-84
2023/11/11 10:09:34;;;;;;;20.47;5.90;;;;;12.40;95467.00;;;;5098755;28;20199;-84
2023/11/11 10:12:23;;;;;;;24.40;6.67;;;;;12.60;95467.00;;;;5108780;28;20659;-84
2023/11/11 10:15:12;;;;;;;8.30;2.40;;;;;13.00;95463.00;;;;5112915;28;20205;-84
2023/11/11 10:18:03;;;;;;;9.77;2.80;;;;;13.10;95463.00;;;;5111286;28;20598;-85
2023/11/11 10:20:53;;;;;;;10.47;3.07;;;;;13.20;95465.00;;;;5110713;28;20718;-85
2023/11/11 10:23:44;;;;;;;8.10;2.33;;;;;13.40;95469.00;;;;5100647;28;20763;-84
2023/11/11 10:26:34;;;;;;;18.83;5.47;;;;;13.70;95465.00;;;;5099723;28;20199;-85
2023/11/11 10:29:23;;;;;;;25.00;6.90;;;;;13.90;95459.00;;;;5104461;27;20214;-84
2023/11/11 10:32:12;;;;;;;8.83;2.70;;;;;13.80;95464.00;;;;5111670;27;20226;-84
2023/11/11 10:35:02;;;;;;;7.27;2.23;;;;;13.80;95478.00;;;;5108877;27;20199;-84
2023/11/11 10:37:52;;;;;;;6.47;2.00;;;;;13.70;95441.00;;;;5119938;27;20202;-85
2023/11/11 10:40:42;;;;;;;14.10;3.90;;;;;13.70;95471.00;;;;5106494;28;20667;-84
2023/11/11 10:43:31;;;;;;;15.00;4.30;;;;;13.70;95461.00;;;;5109884;28;20218;-83
2023/11/11 10:46:20;;;;;;;8.83;2.57;;;;;13.90;95468.00;;;;5110328;28;20213;-82
2023/11/11 10:49:09;;;;;;;10.90;3.27;;;;;13.80;95453.00;;;;5103134;28;20688;-83
2023/11/11 10:52:00;;;;;;;10.47;3.13;;;;;14.00;95460.00;;;;5100018;28;20230;-83
2023/11/11 10:54:55;;;;;;;13.47;4.00;;;;;14.10;95460.00;;;;5096037;28;20477;-84
2023/11/11 10:57:45;;;;;;;11.30;3.13;;;;;14.10;95451.00;;;;5100096;28;20199;-84
2023/11/11 11:00:36;;;;;;;24.03;6.80;;;;;14.10;95463.00;;;;5103644;28;20194;-83
2023/11/11 11:03:25;;;;;;;18.60;5.33;;;;;13.90;95444.00;;;;5106906;28;20222;-83
2023/11/11 11:06:22;;;;;;;10.77;3.03;;;;;13.90;95459.00;;;;5111914;28;20194;-83
2023/11/11 11:09:24;;;;;;;8.97;2.63;;;;;13.60;95450.00;;;;5110763;27;20677;-83
2023/11/11 11:12:22;;;;;;;13.87;3.97;;;;;13.40;95443.00;;;;5102584;27;20221;-83
2023/11/11 11:15:14;;;;;;;10.53;3.07;;;;;13.70;95446.00;;;;5107376;27;20210;-83
2023/11/11 11:18:03;;;;;;;8.33;2.40;;;;;14.20;95437.00;;;;5105214;28;20615;-82
2023/11/11 11:20:55;;;;;;;10.07;2.90;;;;;14.40;95448.00;;;;5104278;28;20226;-82
2023/11/11 11:23:44;;;;;;;10.17;2.90;;;;;14.60;95452.00;;;;5108626;27;20233;-84
2023/11/11 11:26:35;;;;;;;17.07;4.97;;;;;14.60;95452.00;;;;5111751;28;20411;-84
2023/11/11 11:29:26;;;;;;;23.17;6.57;;;;;14.40;95447.00;;;;5109126;28;20202;-84
2023/11/11 11:32:23;;;;;;;8.50;2.53;;;;;14.70;95447.00;;;;5106448;28;20238;-84
2023/11/11 11:35:26;;;;;;;8.80;2.50;;;;;14.70;95451.00;;;;5109433;28;20195;-83
2023/11/11 11:38:27;;;;;;;8.87;2.63;;;;;14.60;95447.00;;;;5107609;28;20749;-83
2023/11/11 11:41:22;;;;;;;6.90;2.07;;;;;14.50;95451.00;;;;5106009;27;20223;-82
2023/11/11 11:44:12;;;;;;;7.57;2.20;;;;;14.60;95465.00;;;;5104345;28;20226;-85
2023/11/11 11:47:02;;;;;;;13.30;3.77;;;;;14.50;95463.00;;;;5107199;28;20580;-84
2023/11/11 11:49:52;;;;;;;11.57;3.20;;;;;14.60;95468.00;;;;5104406;28;20476;-84
2023/11/11 11:52:42;;;;;;;8.87;2.60;;;;;14.50;95466.00;;;;5107397;28;20245;-84
2023/11/11 11:55:38;;;;;;;18.43;5.17;;;;;14.50;95465.00;;;;5108663;28;20218;-83
2023/11/11 11:58:27;;;;;;;15.37;4.33;;;;;14.50;95469.00;;;;5098715;27;20203;-85
2023/11/11 12:01:24;;;;;;;8.97;2.60;;;;;14.60;95469.00;;;;5107413;28;20621;-83
2023/11/11 12:04:15;;;;;;;5.00;1.60;;;;;14.50;95465.00;;;;5108621;28;20222;-82
2023/11/11 12:07:07;;;;;;;10.80;3.13;;;;;13.90;95454.00;;;;5097787;28;20233;-83
2023/11/11 12:09:57;;;;;;;14.77;4.17;;;;;14.00;95463.00;;;;5101964;27;20202;-83
2023/11/11 12:12:47;;;;;;;7.43;2.27;;;;;14.50;95468.00;;;;5110236;28;20237;-84
2023/11/11 12:15:36;;;;;;;20.33;5.73;;;;;14.80;95464.00;;;;5106644;28;20203;-84
2023/11/11 12:18:28;;;;;;;17.27;4.93;;;;;14.30;95449.00;;;;5097283;28;20215;-83
2023/11/11 12:21:19;;;;;;;7.87;2.43;;;;;15.10;95439.00;;;;5098428;28;20237;-82
2023/11/11 12:24:09;;;;;;;7.17;2.13;;;;;16.10;95409.00;;;;5099394;28;20222;-85
2023/11/11 12:27:01;;;;;;;7.50;2.27;;;;;18.10;95411.00;;;;5107347;28;20202;-83
2023/11/11 12:29:50;;;;;;;21.17;14.90;;;;;17.40;95386.00;;;;5105304;28;20252;-84
2023/11/11 12:32:39;;;;;;;9.57;3.50;;;;;17.50;95387.00;;;;5110667;28;20229;-83
2023/11/11 12:35:29;;;;;;;12.83;4.67;;;;;17.50;95463.00;;;;5099977;28;20213;-83
2023/11/11 12:38:28;;;;;;;5.77;2.03;;;;;19.40;95403.00;;;;5100670;28;20210;-84
2023/11/11 12:41:17;;;;;;;8.13;3.00;;;;;19.40;95469.00;;;;5100583;28;20229;-86
2023/11/11 12:44:07;;;;;;;7.10;2.50;;;;;17.90;95469.00;;;;5107036;27;20542;-86
2023/11/11 12:46:56;;;;;;;6.77;2.37;;;;;15.70;95482.00;;;;5117776;27;20198;-84
2023/11/11 12:49:51;;;;;;;4.03;1.57;;;;;16.50;95488.00;;;;5120781;27;20690;-84
2023/11/11 12:52:43;;;;;;;6.53;2.50;;;;;15.90;95487.00;;;;5120856;27;20234;-85
2023/11/11 12:55:34;;;;;;;7.90;3.07;;;;;15.10;95480.00;;;;5123294;27;20667;-82
2023/11/11 12:58:25;;;;;;;7.67;2.87;;;;;15.60;95485.00;;;;5121098;27;20248;-85
2023/11/11 13:01:23;;;;;;;4.33;1.87;;;;;14.70;95481.00;;;;5125352;27;20217;-85
2023/11/11 13:04:13;;;;;;;7.50;2.90;;;;;13.50;95488.00;;;;5115636;27;20596;-83
2023/11/11 13:07:02;;;;;;;5.37;2.17;;;;;14.40;95439.00;;;;5126526;27;20202;-85
2023/11/11 13:09:52;;;;;;;5.90;2.30;;;;;14.20;95447.00;;;;5124446;27;20199;-84
2023/11/11 13:12:43;;;;;;;11.70;4.33;;;;;17.50;95488.00;;;;5117283;27;20687;-83
2023/11/11 13:15:32;;;;;;;14.03;5.07;;;;;17.30;95459.00;;;;5104254;28;20199;-85
2023/11/11 13:18:23;;;;;;;6.20;2.27;;;;;17.40;95466.00;;;;5104851;28;20210;-83
2023/11/11 13:21:12;;;;;;;6.80;2.37;;;;;20.20;95466.00;;;;5113078;28;20578;-85
2023/11/11 13:24:01;;;;;;;7.47;2.60;;;;;19.90;95480.00;;;;5116320;28;20242;-83
2023/11/11 13:26:51;;;;;;;8.33;2.80;;;;;20.20;95474.00;;;;5124393;28;20206;-84
2023/11/11 13:29:42;;;;;;;6.77;2.67;;;;;21.00;95461.00;;;;5123871;28;20218;-86
2023/11/11 13:32:31;;;;;;;17.90;5.80;;;;;21.00;95475.00;;;;5102150;28;20267;-86
2023/11/11 13:35:21;;;;;;;9.50;3.23;;;;;20.20;95527.00;;;;5111923;28;20297;-86
2023/11/11 13:38:10;;;;;;;5.70;1.87;;;;;18.30;95539.00;;;;5107482;28;20212;-85
2023/11/11 13:41:00;;;;;;;7.47;2.50;;;;;18.00;95552.00;;;;5108577;28;20222;-84
2023/11/11 13:43:50;;;;;;;7.27;2.40;;;;;17.00;95542.00;;;;5112001;28;20226;-82
2023/11/11 13:46:41;;;;;;;14.07;4.83;;;;;16.70;95553.00;;;;5096930;27;20245;-83
2023/11/11 13:49:31;;;;;;;12.23;4.23;;;;;15.70;95560.00;;;;5107684;28;20202;-83
2023/11/11 13:52:20;;;;;;;6.73;2.30;;;;;15.40;95568.00;;;;5101474;28;20280;-82
2023/11/11 13:55:09;;;;;;;7.03;2.57;;;;;15.70;95564.00;;;;5106708;27;20207;-82
2023/11/11 13:58:00;;;;;;;6.20;2.23;;;;;16.20;95527.00;;;;5109822;28;20458;-84
2023/11/11 14:00:49;;;;;;;6.63;2.33;;;;;16.50;95537.00;;;;5099268;27;20202;-86
2023/11/11 14:03:39;;;;;;;9.70;3.53;;;;;16.30;95529.00;;;;5110356;28;20583;-85
2023/11/11 14:06:32;;;;;;;7.47;2.63;;;;;17.40;95594.00;;;;5104953;28;20203;-85
2023/11/11 14:09:22;;;;;;;10.40;3.63;;;;;16.80;95593.00;;;;5107620;28;20202;-84
2023/11/11 14:12:11;;;;;;;8.73;2.93;;;;;17.40;95548.00;;;;5104540;28;20712;-84
2023/11/11 14:15:01;;;;;;;10.77;3.73;;;;;17.30;95605.00;;;;5103099;27;20248;-83